createdAt,value
2023-02-15T00:01:54.792Z,2.31
2023-02-15T00:04:24.194Z,2.31
2023-02-15T00:06:52.108Z,2.31
2023-02-15T00:09:19.717Z,2.31
2023-02-15T00:11:51.138Z,2.32
2023-02-15T00:14:20.455Z,2.32
2023-02-15T00:16:49.965Z,2.32
2023-02-15T00:19:18.360Z,2.32
2023-02-15T00:21:46.101Z,2.32
2023-02-15T00:24:15.208Z,2.35
2023-02-15T00:26:43.536Z,2.33
2023-02-15T00:29:12.198Z,2.34
2023-02-15T00:31:39.983Z,2.34
2023-02-15T00:34:12.535Z,2.34
2023-02-15T00:36:40.440Z,2.33
2023-02-15T00:39:08.116Z,2.33
2023-02-15T00:41:36.026Z,2.32
2023-02-15T00:44:03.862Z,2.32
2023-02-15T00:46:31.706Z,2.32
2023-02-15T00:48:59.373Z,2.30
2023-02-15T00:51:28.375Z,2.29
2023-02-15T00:53:56.045Z,2.30
2023-02-15T00:56:23.758Z,2.30
2023-02-15T00:58:53.942Z,2.30
2023-02-15T01:01:22.185Z,2.29
2023-02-15T01:03:49.942Z,2.29
2023-02-15T01:06:18.452Z,2.27
2023-02-15T01:08:47.742Z,2.23
2023-02-15T01:11:16.059Z,2.17
2023-02-15T01:13:44.009Z,2.12
2023-02-15T01:16:11.660Z,2.08
2023-02-15T01:18:39.289Z,2.08
2023-02-15T01:21:14.760Z,2.04
2023-02-15T01:23:43.029Z,2.02
2023-02-15T01:26:12.326Z,2.00
2023-02-15T01:28:40.219Z,1.99
2023-02-15T01:31:08.729Z,1.93
2023-02-15T01:33:37.298Z,1.94
2023-02-15T01:36:05.676Z,1.90
2023-02-15T01:38:33.651Z,1.89
2023-02-15T01:41:15.224Z,1.81
2023-02-15T01:43:45.576Z,1.78
2023-02-15T01:46:15.324Z,1.79
2023-02-15T01:48:45.788Z,1.80
2023-02-15T01:51:13.869Z,1.81
2023-02-15T01:53:44.539Z,1.81
2023-02-15T01:56:15.438Z,1.83
2023-02-15T01:58:44.804Z,1.87
2023-02-15T02:01:12.521Z,1.86
2023-02-15T02:03:44.577Z,1.87
2023-02-15T02:06:12.276Z,1.87
2023-02-15T02:08:41.046Z,1.88
2023-02-15T02:11:11.931Z,1.87
2023-02-15T02:13:40.071Z,1.90
2023-02-15T02:16:13.556Z,1.92
2023-02-15T02:18:48.124Z,1.94
2023-02-15T02:21:34.542Z,1.96
2023-02-15T02:24:19.639Z,1.96
2023-02-15T02:27:10.132Z,1.98
2023-02-15T02:29:55.910Z,2.00
2023-02-15T02:32:41.442Z,2.02
2023-02-15T02:35:13.631Z,2.03
2023-02-15T02:37:48.144Z,2.05
2023-02-15T02:40:19.988Z,2.04
2023-02-15T02:42:51.457Z,2.04
2023-02-15T02:45:23.160Z,2.07
2023-02-15T02:47:53.208Z,2.08
2023-02-15T02:50:24.520Z,2.08
2023-02-15T02:52:52.777Z,2.09
2023-02-15T02:55:23.673Z,2.11
2023-02-15T02:57:54.932Z,2.12
2023-02-15T03:00:24.561Z,2.11
2023-02-15T03:02:55.328Z,2.14
2023-02-15T03:05:27.333Z,2.17
2023-02-15T03:07:55.895Z,2.17
2023-02-15T03:10:25.766Z,2.18
2023-02-15T03:12:53.991Z,2.20
2023-02-15T03:15:22.922Z,2.22
2023-02-15T03:17:53.213Z,2.23
2023-02-15T03:20:26.503Z,2.25
2023-02-15T03:22:57.818Z,2.26
2023-02-15T03:25:27.783Z,2.27
2023-02-15T03:27:57.023Z,2.29
2023-02-15T03:30:25.331Z,2.29
2023-02-15T03:32:53.981Z,2.30
2023-02-15T03:35:23.562Z,2.31
2023-02-15T03:37:53.752Z,2.29
2023-02-15T03:40:43.213Z,2.32
2023-02-15T03:43:15.046Z,2.33
2023-02-15T03:45:55.665Z,2.32
2023-02-15T03:48:26.532Z,2.34
2023-02-15T03:51:16.484Z,2.35
2023-02-15T03:53:45.219Z,2.37
2023-02-15T03:56:14.289Z,2.36
2023-02-15T03:58:59.124Z,2.37
2023-02-15T04:01:58.548Z,2.38
2023-02-15T04:04:27.596Z,2.36
2023-02-15T04:06:55.216Z,2.36
2023-02-15T04:09:40.628Z,2.38
2023-02-15T04:12:09.987Z,2.40
2023-02-15T04:14:55.507Z,2.41
2023-02-15T04:17:23.154Z,2.43
2023-02-15T04:20:08.087Z,2.42
2023-02-15T04:22:52.882Z,2.43
2023-02-15T04:25:21.049Z,2.41
2023-02-15T04:27:51.535Z,2.43
2023-02-15T04:30:20.636Z,2.43
2023-02-15T04:32:48.275Z,2.45
2023-02-15T04:35:16.275Z,2.45
2023-02-15T04:37:44.192Z,2.45
2023-02-15T04:40:12.653Z,2.45
2023-02-15T04:42:40.331Z,2.47
2023-02-15T04:45:09.712Z,2.46
2023-02-15T04:47:37.411Z,2.47
2023-02-15T04:50:05.293Z,2.49
2023-02-15T04:52:32.909Z,2.49
2023-02-15T04:55:00.575Z,2.49
2023-02-15T04:57:28.216Z,2.52
2023-02-15T04:59:55.955Z,2.51
2023-02-15T05:02:25.034Z,2.54
2023-02-15T05:04:52.707Z,2.54
2023-02-15T05:07:21.233Z,2.56
2023-02-15T05:09:48.967Z,2.56
2023-02-15T05:12:16.730Z,2.57
2023-02-15T05:14:44.465Z,2.61
2023-02-15T05:17:12.171Z,2.61
2023-02-15T05:19:41.157Z,2.62
2023-02-15T05:22:08.908Z,2.62
2023-02-15T05:24:53.961Z,2.63
2023-02-15T05:27:38.299Z,2.64
2023-02-15T05:30:06.885Z,2.65
2023-02-15T05:32:34.694Z,2.66
2023-02-15T05:35:03.839Z,2.69
2023-02-15T05:37:31.491Z,2.69
2023-02-15T05:39:59.224Z,2.69
2023-02-15T05:42:27.006Z,2.71
2023-02-15T05:44:54.680Z,2.71
2023-02-15T05:47:22.303Z,2.71
2023-02-15T05:49:49.949Z,2.73
2023-02-15T05:52:19.123Z,2.73
2023-02-15T05:54:46.829Z,2.73
2023-02-15T05:57:14.496Z,2.74
2023-02-15T05:59:42.159Z,2.74
2023-02-15T06:02:09.844Z,2.74
2023-02-15T06:04:37.486Z,2.74
2023-02-15T06:07:05.104Z,2.75
2023-02-15T06:09:34.151Z,2.76
2023-02-15T06:12:01.786Z,2.76
2023-02-15T06:14:29.505Z,2.77
2023-02-15T06:16:57.116Z,2.78
2023-02-15T06:19:24.946Z,2.76
2023-02-15T06:21:52.548Z,2.75
2023-02-15T06:24:20.204Z,2.75
2023-02-15T06:26:49.191Z,2.76
2023-02-15T06:29:16.893Z,2.76
2023-02-15T06:31:44.695Z,2.75
2023-02-15T06:34:12.472Z,2.76
2023-02-15T06:36:40.132Z,2.77
2023-02-15T06:39:07.926Z,2.77
2023-02-15T06:41:35.915Z,2.77
2023-02-15T06:44:05.261Z,2.76
2023-02-15T06:46:32.989Z,2.79
2023-02-15T06:49:00.768Z,2.81
2023-02-15T06:51:28.500Z,2.81
2023-02-15T06:53:56.298Z,2.81
2023-02-15T06:56:23.976Z,2.81
2023-02-15T06:58:51.595Z,2.81
2023-02-15T07:01:20.922Z,2.87
2023-02-15T07:03:48.625Z,2.89
2023-02-15T07:06:16.332Z,2.87
2023-02-15T07:08:44.065Z,2.91
2023-02-15T07:11:28.966Z,2.90
2023-02-15T07:13:56.564Z,2.90
2023-02-15T07:16:25.650Z,2.92
2023-02-15T07:18:53.561Z,2.93
2023-02-15T07:21:21.197Z,2.96
2023-02-15T07:23:48.806Z,2.96
2023-02-15T07:26:16.441Z,2.95
2023-02-15T07:28:44.053Z,2.95
2023-02-15T07:31:11.829Z,2.99
2023-02-15T07:33:40.986Z,3.00
2023-02-15T07:36:10.722Z,3.00
2023-02-15T07:38:38.958Z,3.00
2023-02-15T07:41:07.768Z,3.03
2023-02-15T07:43:36.203Z,3.05
2023-02-15T07:46:04.292Z,3.07
2023-02-15T07:48:32.198Z,3.07
2023-02-15T07:51:02.323Z,3.05
2023-02-15T07:53:30.414Z,3.09
2023-02-15T07:56:00.593Z,3.10
2023-02-15T07:58:48.572Z,3.12
2023-02-15T08:01:16.362Z,3.14
2023-02-15T08:03:44.041Z,3.15
2023-02-15T08:06:14.150Z,3.16
2023-02-15T08:08:41.959Z,3.17
2023-02-15T08:11:30.225Z,3.20
2023-02-15T08:14:00.465Z,3.20
2023-02-15T08:16:30.117Z,3.22
2023-02-15T08:18:58.484Z,3.22
2023-02-15T08:21:29.479Z,3.25
2023-02-15T08:23:57.297Z,3.25
2023-02-15T08:26:25.857Z,3.26
2023-02-15T08:28:53.778Z,3.27
2023-02-15T08:31:21.512Z,3.28
2023-02-15T08:33:49.700Z,3.30
2023-02-15T08:36:18.224Z,3.32
2023-02-15T08:38:47.703Z,3.30
2023-02-15T08:41:16.569Z,3.32
2023-02-15T08:43:44.564Z,3.35
2023-02-15T08:46:13.027Z,3.36
2023-02-15T08:48:40.724Z,3.35
2023-02-15T08:51:09.388Z,3.38
2023-02-15T08:53:37.168Z,3.40
2023-02-15T08:56:06.710Z,3.39
2023-02-15T08:58:34.816Z,3.40
2023-02-15T09:01:04.491Z,3.42
2023-02-15T09:03:32.607Z,3.43
2023-02-15T09:06:00.741Z,3.44
2023-02-15T09:08:28.784Z,3.43
2023-02-15T09:10:56.632Z,3.45
2023-02-15T09:13:25.820Z,3.47
2023-02-15T09:16:00.616Z,3.49
2023-02-15T09:18:28.438Z,3.51
2023-02-15T09:20:56.363Z,3.52
2023-02-15T09:23:27.170Z,3.55
2023-02-15T09:25:55.190Z,3.56
2023-02-15T09:28:22.798Z,3.58
2023-02-15T09:30:51.924Z,3.59
2023-02-15T09:33:19.619Z,3.59
2023-02-15T09:35:47.232Z,3.62
2023-02-15T09:38:15.440Z,3.63
2023-02-15T09:40:51.316Z,3.63
2023-02-15T09:43:29.669Z,3.64
2023-02-15T09:46:07.904Z,3.65
2023-02-15T09:48:41.486Z,3.64
2023-02-15T09:51:23.797Z,3.64
2023-02-15T09:54:03.438Z,3.65
2023-02-15T09:56:37.939Z,3.66
2023-02-15T09:59:11.505Z,3.65
2023-02-15T10:01:45.453Z,3.67
2023-02-15T10:04:43.346Z,3.67
2023-02-15T10:07:18.589Z,3.66
2023-02-15T10:09:51.368Z,3.68
2023-02-15T10:12:29.480Z,3.70
2023-02-15T10:15:12.677Z,3.73
2023-02-15T10:17:48.508Z,3.71
2023-02-15T10:20:24.130Z,3.72
2023-02-15T10:22:59.095Z,3.73
2023-02-15T10:25:31.846Z,3.76
2023-02-15T10:28:01.404Z,3.77
2023-02-15T10:30:34.901Z,3.78
2023-02-15T10:33:05.324Z,3.77
2023-02-15T10:35:37.365Z,3.78
2023-02-15T10:38:15.894Z,3.78
2023-02-15T10:40:47.437Z,3.79
2023-02-15T10:43:34.972Z,3.81
2023-02-15T10:46:08.895Z,3.82
2023-02-15T10:48:44.101Z,3.80
2023-02-15T10:51:16.377Z,3.80
2023-02-15T10:53:52.412Z,3.82
2023-02-15T10:56:22.876Z,3.81
2023-02-15T10:58:58.539Z,3.83
2023-02-15T11:01:30.395Z,3.85
2023-02-15T11:04:10.179Z,3.83
2023-02-15T11:06:40.348Z,3.81
2023-02-15T11:09:11.866Z,3.84
2023-02-15T11:11:43.050Z,3.82
2023-02-15T11:14:16.070Z,3.84
2023-02-15T11:16:46.226Z,3.83
2023-02-15T11:19:16.409Z,3.81
2023-02-15T11:21:46.073Z,3.83
2023-02-15T11:24:14.757Z,3.84
2023-02-15T11:26:44.885Z,3.83
2023-02-15T11:29:15.492Z,3.84
2023-02-15T11:31:45.717Z,3.81
2023-02-15T11:34:20.933Z,3.81
2023-02-15T11:36:51.113Z,3.81
2023-02-15T11:39:20.361Z,3.83
2023-02-15T11:41:53.032Z,3.82
2023-02-15T11:44:23.872Z,3.80
2023-02-15T11:46:51.582Z,3.82
2023-02-15T11:49:25.060Z,3.79
2023-02-15T11:51:53.228Z,3.81
2023-02-15T11:54:23.781Z,3.81
2023-02-15T11:56:51.487Z,3.81
2023-02-15T11:59:24.248Z,3.85
2023-02-15T12:01:52.444Z,3.84
2023-02-15T12:04:23.767Z,3.84
2023-02-15T12:06:55.148Z,3.85
2023-02-15T12:09:27.794Z,3.85
2023-02-15T12:11:55.415Z,3.80
2023-02-15T12:14:23.024Z,3.83
2023-02-15T12:16:51.942Z,3.84
2023-02-15T12:19:37.176Z,3.82
2023-02-15T12:22:09.329Z,3.80
2023-02-15T12:24:40.070Z,3.80
2023-02-15T12:27:15.303Z,3.78
2023-02-15T12:29:44.137Z,3.75
2023-02-15T12:32:13.815Z,3.74
2023-02-15T12:34:43.783Z,3.74
2023-02-15T12:37:17.675Z,3.71
2023-02-15T12:39:53.292Z,3.71
2023-02-15T12:42:21.422Z,3.71
2023-02-15T12:44:55.608Z,3.73
2023-02-15T12:47:29.010Z,3.73
2023-02-15T12:50:12.188Z,3.75
2023-02-15T12:52:41.623Z,3.74
2023-02-15T12:55:13.746Z,3.71
2023-02-15T12:57:41.434Z,3.72
2023-02-15T13:00:26.884Z,3.75
2023-02-15T13:02:55.636Z,3.74
2023-02-15T13:05:27.170Z,3.76
2023-02-15T13:07:58.201Z,3.75
2023-02-15T13:10:27.853Z,3.75
2023-02-15T13:12:55.723Z,3.75
2023-02-15T13:15:28.512Z,3.72
2023-02-15T13:17:57.492Z,3.70
2023-02-15T13:20:27.490Z,3.70
2023-02-15T13:23:00.289Z,3.72
2023-02-15T13:25:29.490Z,3.68
2023-02-15T13:27:59.512Z,3.71
2023-02-15T13:30:28.284Z,3.69
2023-02-15T13:32:58.167Z,3.73
2023-02-15T13:35:27.008Z,3.71
2023-02-15T13:38:03.268Z,3.70
2023-02-15T13:40:35.664Z,3.66
2023-02-15T13:43:07.633Z,3.67
2023-02-15T13:45:39.970Z,3.69
2023-02-15T13:48:13.274Z,3.64
2023-02-15T13:50:48.901Z,3.66
2023-02-15T13:53:27.929Z,3.64
2023-02-15T13:55:57.658Z,3.64
2023-02-15T13:58:37.536Z,3.65
2023-02-15T14:01:10.710Z,3.61
2023-02-15T14:03:56.400Z,3.60
2023-02-15T14:06:40.894Z,3.61
2023-02-15T14:09:16.844Z,3.60
2023-02-15T14:11:48.728Z,3.55
2023-02-15T14:14:33.957Z,3.55
2023-02-15T14:17:07.405Z,3.54
2023-02-15T14:19:37.815Z,3.55
2023-02-15T14:22:12.730Z,3.54
2023-02-15T14:24:45.591Z,3.53
2023-02-15T14:27:18.637Z,3.54
2023-02-15T14:29:49.868Z,3.51
2023-02-15T14:32:20.912Z,3.51
2023-02-15T14:34:50.935Z,3.48
2023-02-15T14:37:21.293Z,3.51
2023-02-15T14:40:11.849Z,3.52
2023-02-15T14:42:44.692Z,3.49
2023-02-15T14:45:19.662Z,3.46
2023-02-15T14:47:50.700Z,3.45
2023-02-15T14:50:38.296Z,3.44
2023-02-15T14:53:17.155Z,3.42
2023-02-15T14:55:46.193Z,3.42
2023-02-15T14:58:14.496Z,3.41
2023-02-15T15:00:42.516Z,3.39
2023-02-15T15:03:25.132Z,3.37
2023-02-15T15:05:55.001Z,3.34
2023-02-15T15:08:29.049Z,3.32
2023-02-15T15:10:58.199Z,3.31
2023-02-15T15:13:40.324Z,3.29
2023-02-15T15:16:22.840Z,3.28
2023-02-15T15:18:51.059Z,3.25
2023-02-15T15:21:33.591Z,3.21
2023-02-15T15:24:01.257Z,3.23
2023-02-15T15:26:31.724Z,3.22
2023-02-15T15:29:01.106Z,3.20
2023-02-15T15:31:34.508Z,3.16
2023-02-15T15:34:24.079Z,3.13
2023-02-15T15:37:20.521Z,3.15
2023-02-15T15:40:22.567Z,3.11
2023-02-15T15:43:06.894Z,3.10
2023-02-15T15:45:46.048Z,3.09
2023-02-15T15:48:22.380Z,3.06
2023-02-15T15:50:54.989Z,3.05
2023-02-15T15:53:24.331Z,3.07
2023-02-15T15:55:53.120Z,3.05
2023-02-15T15:58:22.462Z,3.05
2023-02-15T16:00:52.036Z,3.04
2023-02-15T16:03:23.006Z,3.03
2023-02-15T16:05:55.326Z,3.03
2023-02-15T16:08:30.424Z,2.99
2023-02-15T16:10:58.625Z,2.99
2023-02-15T16:13:28.608Z,2.96
2023-02-15T16:15:57.437Z,2.99
2023-02-15T16:18:26.921Z,2.98
2023-02-15T16:20:56.389Z,2.98
2023-02-15T16:23:35.376Z,2.97
2023-02-15T16:26:07.877Z,2.97
2023-02-15T16:28:37.299Z,2.96
2023-02-15T16:31:08.210Z,2.96
2023-02-15T16:33:37.531Z,2.94
2023-02-15T16:36:08.510Z,2.94
2023-02-15T16:38:53.808Z,2.94
2023-02-15T16:41:23.886Z,2.93
2023-02-15T16:43:55.055Z,2.90
2023-02-15T16:46:25.789Z,2.91
2023-02-15T16:48:54.649Z,2.91
2023-02-15T16:51:26.463Z,2.90
2023-02-15T16:53:56.299Z,2.92
2023-02-15T16:56:25.438Z,2.90
2023-02-15T16:58:56.404Z,2.91
2023-02-15T17:01:26.038Z,2.89
2023-02-15T17:04:12.008Z,2.86
2023-02-15T17:06:39.846Z,2.87
2023-02-15T17:09:10.545Z,2.85
2023-02-15T17:11:42.439Z,2.83
2023-02-15T17:14:16.454Z,2.82
2023-02-15T17:16:49.890Z,2.81
2023-02-15T17:19:19.604Z,2.81
2023-02-15T17:21:50.017Z,2.82
2023-02-15T17:24:19.490Z,2.81
2023-02-15T17:26:50.892Z,2.75
2023-02-15T17:29:24.562Z,2.78
2023-02-15T17:31:53.588Z,2.78
2023-02-15T17:34:39.873Z,2.78
2023-02-15T17:37:12.787Z,2.76
2023-02-15T17:39:41.410Z,2.73
2023-02-15T17:42:09.551Z,2.73
2023-02-15T17:44:38.527Z,2.74
2023-02-15T17:47:06.271Z,2.74
2023-02-15T17:49:35.020Z,2.73
2023-02-15T17:52:03.219Z,2.72
2023-02-15T17:54:48.169Z,2.69
2023-02-15T17:57:16.880Z,2.70
2023-02-15T18:00:03.247Z,2.69
2023-02-15T18:02:53.157Z,2.70
2023-02-15T18:05:38.288Z,2.68
2023-02-15T18:08:24.474Z,2.68
2023-02-15T18:11:09.460Z,2.68
2023-02-15T18:13:37.181Z,2.66
2023-02-15T18:16:06.638Z,2.68
2023-02-15T18:18:34.697Z,2.68
2023-02-15T18:21:02.691Z,2.65
2023-02-15T18:23:30.472Z,2.67
2023-02-15T18:25:58.448Z,2.67
2023-02-15T18:28:28.292Z,2.64
2023-02-15T18:30:56.093Z,2.64
2023-02-15T18:33:30.567Z,2.60
2023-02-15T18:35:58.248Z,2.60
2023-02-15T18:38:25.871Z,2.58
2023-02-15T18:40:53.732Z,2.56
2023-02-15T18:43:21.382Z,2.54
2023-02-15T18:45:49.064Z,2.57
2023-02-15T18:48:16.792Z,2.57
2023-02-15T18:50:46.067Z,2.56
2023-02-15T18:53:17.315Z,2.56
2023-02-15T18:55:44.998Z,2.59
2023-02-15T18:58:16.230Z,2.55
2023-02-15T19:00:45.429Z,2.54
2023-02-15T19:03:14.361Z,2.55
2023-02-15T19:05:43.084Z,2.53
2023-02-15T19:08:17.473Z,2.50
2023-02-15T19:10:45.625Z,2.49
2023-02-15T19:13:13.795Z,2.50
2023-02-15T19:15:41.993Z,2.49
2023-02-15T19:18:09.605Z,2.49
2023-02-15T19:20:39.220Z,2.46
2023-02-15T19:23:08.090Z,2.46
2023-02-15T19:25:39.064Z,2.44
2023-02-15T19:28:10.147Z,2.42
2023-02-15T19:30:38.751Z,2.41
2023-02-15T19:33:06.688Z,2.40
2023-02-15T19:35:35.938Z,2.41
2023-02-15T19:38:05.531Z,2.40
2023-02-15T19:40:34.352Z,2.41
2023-02-15T19:43:03.713Z,2.39
2023-02-15T19:45:32.428Z,2.36
2023-02-15T19:48:01.831Z,2.37
2023-02-15T19:50:31.695Z,2.38
2023-02-15T19:52:59.431Z,2.36
2023-02-15T19:55:28.337Z,2.33
2023-02-15T19:57:56.847Z,2.33
2023-02-15T20:00:27.193Z,2.35
2023-02-15T20:02:55.574Z,2.32
2023-02-15T20:05:23.661Z,2.32
2023-02-15T20:07:52.024Z,2.32
2023-02-15T20:10:20.601Z,2.35
2023-02-15T20:12:49.049Z,2.34
2023-02-15T20:15:21.329Z,2.33
2023-02-15T20:17:50.766Z,2.31
2023-02-15T20:20:19.373Z,2.30
2023-02-15T20:22:48.179Z,2.30
2023-02-15T20:25:19.229Z,2.30
2023-02-15T20:27:46.964Z,2.30
2023-02-15T20:30:18.877Z,2.28
2023-02-15T20:32:46.650Z,2.28
2023-02-15T20:35:16.688Z,2.27
2023-02-15T20:37:44.985Z,2.28
2023-02-15T20:40:19.908Z,2.30
2023-02-15T20:42:47.968Z,2.26
2023-02-15T20:45:16.707Z,2.28
2023-02-15T20:47:48.550Z,2.29
2023-02-15T20:50:19.546Z,2.29
2023-02-15T20:52:47.732Z,2.26
2023-02-15T20:55:16.352Z,2.27
2023-02-15T20:57:44.148Z,2.27
2023-02-15T21:00:23.927Z,2.27
2023-02-15T21:02:52.535Z,2.26
2023-02-15T21:05:23.072Z,2.27
2023-02-15T21:07:51.604Z,2.26
2023-02-15T21:10:20.163Z,2.23
2023-02-15T21:12:48.288Z,2.26
2023-02-15T21:15:33.842Z,2.24
2023-02-15T21:18:02.775Z,2.25
2023-02-15T21:20:32.497Z,2.24
2023-02-15T21:23:02.110Z,2.24
2023-02-15T21:25:30.700Z,2.24
2023-02-15T21:27:58.360Z,2.22
2023-02-15T21:30:26.218Z,2.22
2023-02-15T21:32:54.368Z,2.21
2023-02-15T21:35:22.092Z,2.21
2023-02-15T21:37:52.317Z,2.21
2023-02-15T21:40:21.621Z,2.18
2023-02-15T21:43:07.443Z,2.21
2023-02-15T21:45:52.677Z,2.20
2023-02-15T21:48:21.867Z,2.17
2023-02-15T21:51:07.895Z,2.18
2023-02-15T21:53:38.547Z,2.14
2023-02-15T21:56:07.108Z,2.16
2023-02-15T21:58:36.673Z,2.15
2023-02-15T22:01:04.829Z,2.15
2023-02-15T22:03:33.950Z,2.14
2023-02-15T22:06:03.131Z,2.14
2023-02-15T22:08:30.966Z,2.12
2023-02-15T22:11:00.119Z,2.10
2023-02-15T22:13:29.322Z,2.11
2023-02-15T22:15:57.108Z,2.11
2023-02-15T22:18:25.794Z,2.09
2023-02-15T22:20:53.959Z,2.09
2023-02-15T22:23:21.976Z,2.08
2023-02-15T22:25:54.772Z,2.08
2023-02-15T22:28:26.078Z,2.09
2023-02-15T22:30:53.842Z,2.07
2023-02-15T22:33:23.583Z,2.08
2023-02-15T22:35:51.538Z,2.08
2023-02-15T22:38:19.412Z,2.07
2023-02-15T22:40:47.920Z,2.07
2023-02-15T22:43:29.110Z,2.07
2023-02-15T22:45:58.942Z,2.06
2023-02-15T22:48:26.806Z,2.05
2023-02-15T22:50:54.887Z,2.04
2023-02-15T22:53:22.581Z,2.03
2023-02-15T22:55:50.447Z,2.04
2023-02-15T22:58:19.925Z,2.05
2023-02-15T23:00:49.159Z,2.06
2023-02-15T23:03:18.348Z,2.07
2023-02-15T23:05:46.099Z,2.05
2023-02-15T23:08:14.203Z,2.04
2023-02-15T23:10:42.810Z,2.03
2023-02-15T23:13:26.161Z,2.04
2023-02-15T23:15:56.848Z,2.04
2023-02-15T23:18:28.883Z,2.03
2023-02-15T23:20:58.121Z,2.04
2023-02-15T23:23:28.450Z,2.04
2023-02-15T23:25:56.177Z,2.05
2023-02-15T23:28:27.681Z,2.05
2023-02-15T23:30:57.058Z,2.03
2023-02-15T23:33:26.373Z,2.04
2023-02-15T23:35:54.071Z,2.03
2023-02-15T23:38:23.385Z,2.04
2023-02-15T23:41:09.974Z,2.05
2023-02-15T23:43:38.063Z,2.03
2023-02-15T23:46:07.826Z,2.02
2023-02-15T23:48:36.735Z,2.02
2023-02-15T23:51:05.117Z,2.04
2023-02-15T23:53:33.507Z,2.04
2023-02-15T23:56:01.220Z,2.04
2023-02-15T23:58:36.345Z,2.04
